createdAt,value
2019-01-08T00:01:10.698Z,13.60
2019-01-08T00:03:39.119Z,16.33
2019-01-08T00:06:07.865Z,16.80
2019-01-08T00:08:36.365Z,13.03
2019-01-08T00:11:04.961Z,10.70
2019-01-08T00:13:33.666Z,10.70
2019-01-08T00:16:02.377Z,10.80
2019-01-08T00:18:30.762Z,9.97
2019-01-08T00:20:59.446Z,10.97
2019-01-08T00:23:28.180Z,14.27
2019-01-08T00:25:56.888Z,9.83
2019-01-08T00:28:25.314Z,7.27
2019-01-08T00:30:57.513Z,5.83
2019-01-08T00:33:26.290Z,6.23
2019-01-08T00:35:55.411Z,7.23
2019-01-08T00:38:24.159Z,6.90
2019-01-08T00:40:52.865Z,7.37
2019-01-08T00:43:21.590Z,6.80
2019-01-08T00:45:50.275Z,6.60
2019-01-08T00:48:19.664Z,7.23
2019-01-08T00:50:48.361Z,6.50
2019-01-08T00:53:16.850Z,8.23
2019-01-08T00:55:45.580Z,8.80
2019-01-08T00:58:13.968Z,8.00
2019-01-08T01:00:42.391Z,8.50
2019-01-08T01:03:10.811Z,8.80
2019-01-08T01:05:39.484Z,7.27
2019-01-08T01:08:08.206Z,7.47
2019-01-08T01:10:36.911Z,8.03
2019-01-08T01:13:05.344Z,6.60
2019-01-08T01:15:34.036Z,5.83
2019-01-08T01:18:02.479Z,5.80
2019-01-08T01:20:31.167Z,5.40
2019-01-08T01:22:59.576Z,5.37
2019-01-08T01:25:28.303Z,6.10
2019-01-08T01:27:56.729Z,4.93
2019-01-08T01:30:25.529Z,6.03
2019-01-08T01:32:54.196Z,5.40
2019-01-08T01:35:23.653Z,6.30
2019-01-08T01:37:52.389Z,5.10
2019-01-08T01:40:21.362Z,5.50
2019-01-08T01:42:50.051Z,5.00
2019-01-08T01:45:19.322Z,5.63
2019-01-08T01:47:48.109Z,6.10
2019-01-08T01:50:16.860Z,4.30
2019-01-08T01:52:45.563Z,4.77
2019-01-08T01:55:14.233Z,4.40
2019-01-08T01:57:42.673Z,4.30
2019-01-08T02:00:11.505Z,3.70
2019-01-08T02:02:40.216Z,3.73
2019-01-08T02:05:08.976Z,3.63
2019-01-08T02:07:37.663Z,4.20
2019-01-08T02:10:08.293Z,3.60
2019-01-08T02:12:37.043Z,3.23
2019-01-08T02:15:06.172Z,4.83
2019-01-08T02:17:34.565Z,4.10
2019-01-08T02:20:04.010Z,3.90
2019-01-08T02:22:32.709Z,3.87
2019-01-08T02:25:02.087Z,4.17
2019-01-08T02:27:31.587Z,3.20
2019-01-08T02:30:00.954Z,4.37
2019-01-08T02:32:29.854Z,3.93
2019-01-08T02:34:58.526Z,4.60
2019-01-08T02:37:27.283Z,3.60
2019-01-08T02:39:56.121Z,4.00
2019-01-08T02:42:24.816Z,4.00
2019-01-08T02:44:53.493Z,3.70
2019-01-08T02:47:22.213Z,3.20
2019-01-08T02:49:50.878Z,3.43
2019-01-08T02:52:19.562Z,3.67
2019-01-08T02:54:48.322Z,3.37
2019-01-08T02:57:17.690Z,3.37
2019-01-08T02:59:46.107Z,3.60
2019-01-08T03:02:14.839Z,3.43
2019-01-08T03:04:43.523Z,3.57
2019-01-08T03:07:11.910Z,3.30
2019-01-08T03:09:40.646Z,3.97
2019-01-08T03:12:10.315Z,4.27
2019-01-08T03:14:38.992Z,3.30
2019-01-08T03:17:07.688Z,3.93
2019-01-08T03:19:36.111Z,3.47
2019-01-08T03:22:04.627Z,4.00
2019-01-08T03:24:33.019Z,3.27
2019-01-08T03:27:01.844Z,3.93
2019-01-08T03:29:33.754Z,3.43
2019-01-08T03:32:01.106Z,3.33
2019-01-08T03:34:29.862Z,4.37
2019-01-08T03:36:58.646Z,3.70
2019-01-08T03:39:27.308Z,3.57
2019-01-08T03:41:56.019Z,5.50
2019-01-08T03:44:24.781Z,3.80
2019-01-08T03:46:53.522Z,4.37
2019-01-08T03:49:22.272Z,3.57
2019-01-08T03:51:50.962Z,3.07
2019-01-08T03:54:19.423Z,3.47
2019-01-08T03:56:48.130Z,3.93
2019-01-08T03:59:16.825Z,3.73
2019-01-08T04:01:45.566Z,3.43
2019-01-08T04:04:14.242Z,3.43
2019-01-08T04:06:42.914Z,3.90
2019-01-08T04:09:11.350Z,3.70
2019-01-08T04:11:39.755Z,3.80
2019-01-08T04:14:08.138Z,4.07
2019-01-08T04:16:36.938Z,3.70
2019-01-08T04:19:05.345Z,4.00
2019-01-08T04:21:34.183Z,3.83
2019-01-08T04:24:04.255Z,3.60
2019-01-08T04:26:32.990Z,3.30
2019-01-08T04:29:01.389Z,3.50
2019-01-08T04:31:30.090Z,4.30
2019-01-08T04:33:58.508Z,3.30
2019-01-08T04:36:27.190Z,3.97
2019-01-08T04:38:55.914Z,3.80
2019-01-08T04:41:24.742Z,3.73
2019-01-08T04:43:53.174Z,4.13
2019-01-08T04:46:21.875Z,4.17
2019-01-08T04:48:50.540Z,4.70
2019-01-08T04:51:19.247Z,3.80
2019-01-08T04:53:47.950Z,4.00
2019-01-08T04:56:16.645Z,4.30
2019-01-08T04:58:45.334Z,3.40
2019-01-08T05:01:14.027Z,3.80
2019-01-08T05:03:42.850Z,3.90
2019-01-08T05:06:11.535Z,4.00
2019-01-08T05:08:40.410Z,4.63
2019-01-08T05:11:08.842Z,3.70
2019-01-08T05:13:37.527Z,4.90
2019-01-08T05:16:06.287Z,4.27
2019-01-08T05:18:34.979Z,4.10
2019-01-08T05:21:03.467Z,3.90
2019-01-08T05:23:32.159Z,3.93
2019-01-08T05:26:00.893Z,4.13
2019-01-08T05:28:29.580Z,5.03
2019-01-08T05:30:58.280Z,3.80
2019-01-08T05:33:26.792Z,4.27
2019-01-08T05:35:55.669Z,3.90
2019-01-08T05:38:24.351Z,4.50
2019-01-08T05:40:53.254Z,4.67
2019-01-08T05:43:21.954Z,3.93
2019-01-08T05:45:50.367Z,3.73
2019-01-08T05:48:19.090Z,4.03
2019-01-08T05:50:47.870Z,4.50
2019-01-08T05:53:16.553Z,4.70
2019-01-08T05:55:45.265Z,4.40
2019-01-08T05:58:13.685Z,5.07
2019-01-08T06:00:43.186Z,5.53
2019-01-08T06:03:11.861Z,5.80
2019-01-08T06:05:40.572Z,4.97
2019-01-08T06:08:08.969Z,6.40
2019-01-08T06:10:37.418Z,6.20
2019-01-08T06:13:06.124Z,5.00
2019-01-08T06:15:34.841Z,5.47
2019-01-08T06:18:03.248Z,5.87
2019-01-08T06:20:32.551Z,5.73
2019-01-08T06:23:00.949Z,4.73
2019-01-08T06:25:29.657Z,3.80
2019-01-08T06:27:58.077Z,5.83
2019-01-08T06:30:26.967Z,8.60
2019-01-08T06:32:55.667Z,5.20
2019-01-08T06:35:24.422Z,4.80
2019-01-08T06:37:52.819Z,4.10
2019-01-08T06:40:21.535Z,4.83
2019-01-08T06:42:49.950Z,6.60
2019-01-08T06:45:18.382Z,7.40
2019-01-08T06:47:47.055Z,26.07
2019-01-08T06:50:15.658Z,18.73
2019-01-08T06:52:44.324Z,8.03
2019-01-08T06:55:13.085Z,5.67
2019-01-08T06:57:41.835Z,16.23
2019-01-08T07:00:11.659Z,12.20
2019-01-08T07:02:40.331Z,8.00
2019-01-08T07:05:08.868Z,6.90
2019-01-08T07:07:37.650Z,9.83
2019-01-08T07:10:07.854Z,7.23
2019-01-08T07:12:42.586Z,4.63
2019-01-08T07:15:11.005Z,6.20
2019-01-08T07:17:39.802Z,7.80
2019-01-08T07:20:08.747Z,18.47
2019-01-08T07:22:37.414Z,5.60
2019-01-08T07:25:06.469Z,5.97
2019-01-08T07:27:35.138Z,6.40
2019-01-08T07:30:03.604Z,5.00
2019-01-08T07:32:32.020Z,4.37
2019-01-08T07:35:00.640Z,4.47
2019-01-08T07:37:29.328Z,4.00
2019-01-08T07:39:57.741Z,4.17
2019-01-08T07:42:26.442Z,4.43
2019-01-08T07:44:55.130Z,5.67
2019-01-08T07:47:23.834Z,4.10
2019-01-08T07:49:52.515Z,5.13
2019-01-08T07:52:21.213Z,4.90
2019-01-08T07:54:49.602Z,5.33
2019-01-08T07:57:18.363Z,4.03
2019-01-08T07:59:47.045Z,4.33
2019-01-08T08:02:15.794Z,4.00
2019-01-08T08:04:47.779Z,4.17
2019-01-08T08:07:14.639Z,4.30
2019-01-08T08:09:43.345Z,4.60
2019-01-08T08:12:12.117Z,3.80
2019-01-08T08:14:40.541Z,3.77
2019-01-08T08:17:09.254Z,4.43
2019-01-08T08:19:37.916Z,4.10
2019-01-08T08:22:06.659Z,4.40
2019-01-08T08:24:35.114Z,3.97
2019-01-08T08:27:03.785Z,3.30
2019-01-08T08:29:32.499Z,4.27
2019-01-08T08:32:01.160Z,3.37
2019-01-08T08:34:29.886Z,3.43
2019-01-08T08:36:58.548Z,3.53
2019-01-08T08:39:27.331Z,3.83
2019-01-08T08:41:56.053Z,3.73
2019-01-08T08:44:24.465Z,18.73
2019-01-08T08:46:53.161Z,3.83
2019-01-08T08:49:21.867Z,4.63
2019-01-08T08:51:50.309Z,3.50
2019-01-08T08:54:18.965Z,3.53
2019-01-08T08:56:47.682Z,3.97
2019-01-08T08:59:16.417Z,3.23
2019-01-08T09:01:45.130Z,4.40
2019-01-08T09:04:13.528Z,3.53
2019-01-08T09:06:42.247Z,5.10
2019-01-08T09:09:10.648Z,3.90
2019-01-08T09:11:39.324Z,3.43
2019-01-08T09:14:08.108Z,3.50
2019-01-08T09:16:36.514Z,3.37
2019-01-08T09:19:05.231Z,3.20
2019-01-08T09:21:33.971Z,3.93
2019-01-08T09:24:02.375Z,3.30
2019-01-08T09:26:30.809Z,3.67
2019-01-08T09:28:59.209Z,2.90
2019-01-08T09:31:27.945Z,3.27
2019-01-08T09:33:56.615Z,4.27
2019-01-08T09:36:25.039Z,3.30
2019-01-08T09:38:53.883Z,5.30
2019-01-08T09:41:22.574Z,3.90
2019-01-08T09:43:51.319Z,3.93
2019-01-08T09:46:19.948Z,3.80
2019-01-08T09:48:48.380Z,3.40
2019-01-08T09:51:17.074Z,5.10
2019-01-08T09:53:45.781Z,4.23
2019-01-08T09:56:14.206Z,4.63
2019-01-08T09:58:42.909Z,3.20
2019-01-08T10:01:11.613Z,3.70
2019-01-08T10:03:40.311Z,3.90
2019-01-08T10:06:08.742Z,3.33
2019-01-08T10:08:37.159Z,4.43
2019-01-08T10:11:07.342Z,3.93
2019-01-08T10:13:35.872Z,4.30
2019-01-08T10:16:04.286Z,4.37
2019-01-08T10:18:32.993Z,4.83
2019-01-08T10:21:01.680Z,4.73
2019-01-08T10:23:30.245Z,4.37
2019-01-08T10:25:58.583Z,3.93
2019-01-08T10:28:26.998Z,3.73
2019-01-08T10:30:55.673Z,3.97
2019-01-08T10:33:24.112Z,4.80
2019-01-08T10:35:52.773Z,5.43
2019-01-08T10:38:21.189Z,3.93
2019-01-08T10:40:49.926Z,4.90
2019-01-08T10:43:18.602Z,4.50
2019-01-08T10:45:47.111Z,4.80
2019-01-08T10:48:15.782Z,4.83
2019-01-08T10:50:44.460Z,4.27
2019-01-08T10:53:12.891Z,3.83
2019-01-08T10:55:41.302Z,5.30
2019-01-08T10:58:09.735Z,5.37
2019-01-08T11:00:38.494Z,4.93
2019-01-08T11:03:07.255Z,4.90
2019-01-08T11:05:35.984Z,4.87
2019-01-08T11:08:04.408Z,4.30
2019-01-08T11:10:33.186Z,3.50
2019-01-08T11:13:01.850Z,4.80
2019-01-08T11:15:30.548Z,4.97
2019-01-08T11:17:59.215Z,4.40
2019-01-08T11:20:27.897Z,4.73
2019-01-08T11:22:56.603Z,5.20
2019-01-08T11:25:25.355Z,5.30
2019-01-08T11:27:55.579Z,4.30
2019-01-08T11:30:24.294Z,3.97
2019-01-08T11:32:54.833Z,4.93
2019-01-08T11:35:23.440Z,4.70
2019-01-08T11:37:52.139Z,4.40
2019-01-08T11:40:20.910Z,4.97
2019-01-08T11:42:49.318Z,5.10
2019-01-08T11:45:18.025Z,4.70
2019-01-08T11:47:46.805Z,4.30
2019-01-08T11:50:15.196Z,4.00
2019-01-08T11:52:44.000Z,4.50
2019-01-08T11:55:12.671Z,4.37
2019-01-08T11:57:41.106Z,4.83
2019-01-08T12:00:12.004Z,6.03
2019-01-08T12:02:47.712Z,4.87
2019-01-08T12:05:11.305Z,5.33
2019-01-08T12:07:39.711Z,4.73
2019-01-08T12:10:08.426Z,5.17
2019-01-08T12:12:37.149Z,5.07
2019-01-08T12:15:07.202Z,4.30
2019-01-08T12:17:35.626Z,5.40
2019-01-08T12:20:07.125Z,5.00
2019-01-08T12:22:40.805Z,4.77
2019-01-08T12:25:06.614Z,4.93
2019-01-08T12:27:35.322Z,4.60
2019-01-08T12:30:08.104Z,5.10
2019-01-08T12:32:36.837Z,3.60
2019-01-08T12:35:05.600Z,3.80
2019-01-08T12:37:34.272Z,4.80
2019-01-08T12:40:02.968Z,4.60
2019-01-08T12:42:34.678Z,5.10
2019-01-08T12:45:03.173Z,5.43
2019-01-08T12:47:31.685Z,5.47
2019-01-08T12:50:00.563Z,5.20
2019-01-08T12:52:29.326Z,5.47
2019-01-08T12:54:58.019Z,4.57
2019-01-08T12:57:26.431Z,4.97
2019-01-08T12:59:55.144Z,5.00
2019-01-08T13:02:23.571Z,5.20
2019-01-08T13:04:53.728Z,4.70
2019-01-08T13:07:22.162Z,4.70
2019-01-08T13:09:50.853Z,5.77
2019-01-08T13:12:19.276Z,5.40
2019-01-08T13:14:47.867Z,6.80
2019-01-08T13:17:16.527Z,4.43
2019-01-08T13:19:45.247Z,4.60
2019-01-08T13:22:13.701Z,5.43
2019-01-08T13:24:42.114Z,3.63
2019-01-08T13:27:10.795Z,3.70
2019-01-08T13:29:39.223Z,4.00
2019-01-08T13:32:07.961Z,4.43
2019-01-08T13:34:36.391Z,5.17
2019-01-08T13:37:04.924Z,4.03
2019-01-08T13:39:33.342Z,5.30
2019-01-08T13:42:02.028Z,2.97
2019-01-08T13:44:30.738Z,4.50
2019-01-08T13:46:59.418Z,3.60
2019-01-08T13:49:28.131Z,4.10
2019-01-08T13:51:56.806Z,4.77
2019-01-08T13:54:25.259Z,3.80
2019-01-08T13:56:53.975Z,4.33
2019-01-08T13:59:22.757Z,2.90
2019-01-08T14:01:51.525Z,3.50
2019-01-08T14:04:20.277Z,2.97
2019-01-08T14:06:48.952Z,3.70
2019-01-08T14:09:17.668Z,4.30
2019-01-08T14:11:46.133Z,4.30
2019-01-08T14:14:14.927Z,3.43
2019-01-08T14:16:43.607Z,3.77
2019-01-08T14:19:12.016Z,3.70
2019-01-08T14:21:40.446Z,4.07
2019-01-08T14:24:09.161Z,3.70
2019-01-08T14:26:37.636Z,4.40
2019-01-08T14:29:06.404Z,3.77
2019-01-08T14:31:35.081Z,3.30
2019-01-08T14:34:03.847Z,3.50
2019-01-08T14:36:33.504Z,3.80
2019-01-08T14:39:02.218Z,4.23
2019-01-08T14:41:30.952Z,3.60
2019-01-08T14:43:59.371Z,3.80
2019-01-08T14:46:27.810Z,2.30
2019-01-08T14:48:56.500Z,2.43
2019-01-08T14:51:26.168Z,2.53
2019-01-08T14:53:54.598Z,3.20
2019-01-08T14:56:23.016Z,3.00
2019-01-08T14:58:51.724Z,2.73
2019-01-08T15:01:20.469Z,3.13
2019-01-08T15:03:49.189Z,3.77
2019-01-08T15:06:17.862Z,3.67
2019-01-08T15:08:46.343Z,3.20
2019-01-08T15:11:14.847Z,3.00
2019-01-08T15:13:43.301Z,3.40
2019-01-08T15:16:12.012Z,2.90
2019-01-08T15:18:40.714Z,3.80
2019-01-08T15:21:09.170Z,4.43
2019-01-08T15:23:37.834Z,3.63
2019-01-08T15:26:06.626Z,3.40
2019-01-08T15:28:35.308Z,2.73
2019-01-08T15:31:04.020Z,3.23
2019-01-08T15:33:32.688Z,4.83
2019-01-08T15:36:01.103Z,3.67
2019-01-08T15:38:29.810Z,3.13
2019-01-08T15:40:58.502Z,3.50
2019-01-08T15:43:27.265Z,3.60
2019-01-08T15:45:55.670Z,3.07
2019-01-08T15:48:24.349Z,3.93
2019-01-08T15:50:53.221Z,4.37
2019-01-08T15:53:21.968Z,3.50
2019-01-08T15:55:50.648Z,4.00
2019-01-08T15:58:19.443Z,3.27
2019-01-08T16:00:48.219Z,3.90
2019-01-08T16:03:16.614Z,4.10
2019-01-08T16:05:45.012Z,3.43
2019-01-08T16:08:13.752Z,3.87
2019-01-08T16:10:42.529Z,3.50
2019-01-08T16:13:10.992Z,3.97
2019-01-08T16:15:39.682Z,4.33
2019-01-08T16:18:08.416Z,4.10
2019-01-08T16:20:36.847Z,3.80
2019-01-08T16:23:05.632Z,3.80
2019-01-08T16:25:34.253Z,3.50
2019-01-08T16:28:02.927Z,3.93
2019-01-08T16:30:31.710Z,3.87
2019-01-08T16:33:00.406Z,3.43
2019-01-08T16:35:29.120Z,4.50
2019-01-08T16:37:57.902Z,4.30
2019-01-08T16:40:26.618Z,4.40
2019-01-08T16:42:55.365Z,4.00
2019-01-08T16:45:24.067Z,3.83
2019-01-08T16:47:52.744Z,4.20
2019-01-08T16:50:21.577Z,5.10
2019-01-08T16:52:50.342Z,4.20
2019-01-08T16:55:19.683Z,3.70
2019-01-08T16:57:48.546Z,4.97
2019-01-08T17:00:17.364Z,4.50
2019-01-08T17:02:45.858Z,5.40
2019-01-08T17:05:14.514Z,4.07
2019-01-08T17:07:42.944Z,3.90
2019-01-08T17:10:11.702Z,4.27
2019-01-08T17:12:40.421Z,3.23
2019-01-08T17:15:09.281Z,4.07
2019-01-08T17:17:37.831Z,4.23
2019-01-08T17:20:07.662Z,4.00
2019-01-08T17:22:36.208Z,4.00
2019-01-08T17:25:05.702Z,3.87
2019-01-08T17:27:34.392Z,3.87
2019-01-08T17:30:03.185Z,4.40
2019-01-08T17:32:32.014Z,3.33
2019-01-08T17:35:00.739Z,4.10
2019-01-08T17:37:29.444Z,4.23
2019-01-08T17:39:58.815Z,4.10
2019-01-08T17:42:27.233Z,3.00
2019-01-08T17:44:55.660Z,4.40
2019-01-08T17:47:24.625Z,3.60
2019-01-08T17:49:53.410Z,4.03
2019-01-08T17:52:22.107Z,3.80
2019-01-08T17:54:51.402Z,5.33
2019-01-08T17:57:20.117Z,3.80
2019-01-08T17:59:48.873Z,6.27
2019-01-08T18:02:17.624Z,7.10
2019-01-08T18:04:46.294Z,4.20
2019-01-08T18:07:14.802Z,8.10
2019-01-08T18:09:43.508Z,7.23
2019-01-08T18:12:12.321Z,5.77
2019-01-08T18:14:41.009Z,5.93
2019-01-08T18:17:09.854Z,4.90
2019-01-08T18:19:38.618Z,18.20
2019-01-08T18:22:07.329Z,46.53
2019-01-08T18:24:36.069Z,26.63
2019-01-08T18:27:04.967Z,7.20
2019-01-08T18:29:33.370Z,10.40
2019-01-08T18:32:03.739Z,29.23
2019-01-08T18:34:32.342Z,26.57
2019-01-08T18:37:00.997Z,20.93
2019-01-08T18:39:29.414Z,6.97
2019-01-08T18:41:57.877Z,6.50
2019-01-08T18:44:26.277Z,5.60
2019-01-08T18:46:54.652Z,3.87
2019-01-08T18:49:23.396Z,4.23
2019-01-08T18:51:52.118Z,4.47
2019-01-08T18:54:20.834Z,3.00
2019-01-08T18:56:49.644Z,3.87
2019-01-08T18:59:18.952Z,3.83
2019-01-08T19:01:47.749Z,3.60
2019-01-08T19:04:16.531Z,4.30
2019-01-08T19:06:45.995Z,3.47
2019-01-08T19:09:26.154Z,4.27
2019-01-08T19:11:55.436Z,4.00
2019-01-08T19:14:27.181Z,5.27
2019-01-08T19:16:55.965Z,4.27
2019-01-08T19:19:24.734Z,5.63
2019-01-08T19:21:53.573Z,4.50
2019-01-08T19:24:22.534Z,4.40
2019-01-08T19:26:51.238Z,7.07
2019-01-08T19:29:20.024Z,6.70
2019-01-08T19:31:48.585Z,3.67
2019-01-08T19:34:17.347Z,4.90
2019-01-08T19:36:45.767Z,3.60
2019-01-08T19:39:14.485Z,3.00
2019-01-08T19:41:43.221Z,3.83
2019-01-08T19:44:11.939Z,3.93
2019-01-08T19:46:40.462Z,3.60
2019-01-08T19:49:08.863Z,3.80
2019-01-08T19:51:37.626Z,3.57
2019-01-08T19:54:06.417Z,4.50
2019-01-08T19:56:35.101Z,3.57
2019-01-08T19:59:03.822Z,5.40
2019-01-08T20:01:32.402Z,4.17
2019-01-08T20:04:01.150Z,4.47
2019-01-08T20:06:29.927Z,4.10
2019-01-08T20:08:58.820Z,3.30
2019-01-08T20:11:27.556Z,6.57
2019-01-08T20:13:56.303Z,4.57
2019-01-08T20:16:24.748Z,3.73
2019-01-08T20:18:53.558Z,4.70
2019-01-08T20:21:22.259Z,5.27
2019-01-08T20:23:50.763Z,4.50
2019-01-08T20:26:19.446Z,4.00
2019-01-08T20:28:48.121Z,5.07
2019-01-08T20:31:17.724Z,4.10
2019-01-08T20:33:46.498Z,3.77
2019-01-08T20:36:15.203Z,4.30
2019-01-08T20:38:43.887Z,3.57
2019-01-08T20:41:13.933Z,3.30
2019-01-08T20:43:42.945Z,4.03
2019-01-08T20:46:11.394Z,3.80
2019-01-08T20:48:40.108Z,4.20
2019-01-08T20:51:08.826Z,3.30
2019-01-08T20:53:37.244Z,4.13
2019-01-08T20:56:05.688Z,3.33
2019-01-08T20:58:34.128Z,2.67
2019-01-08T21:01:02.868Z,3.50
2019-01-08T21:03:31.390Z,3.17
2019-01-08T21:06:00.100Z,3.40
2019-01-08T21:08:28.818Z,13.30
2019-01-08T21:10:58.781Z,7.13
2019-01-08T21:13:27.212Z,10.63
2019-01-08T21:15:55.923Z,6.13
2019-01-08T21:18:24.304Z,6.73
2019-01-08T21:20:55.191Z,4.27
2019-01-08T21:23:23.926Z,3.60
2019-01-08T21:25:52.679Z,4.23
2019-01-08T21:28:21.359Z,4.33
2019-01-08T21:30:50.170Z,3.90
2019-01-08T21:33:18.875Z,4.10
2019-01-08T21:35:47.649Z,3.93
2019-01-08T21:38:16.369Z,3.13
2019-01-08T21:40:45.065Z,3.73
2019-01-08T21:43:13.775Z,3.27
2019-01-08T21:45:42.454Z,3.57
2019-01-08T21:48:11.135Z,2.97
2019-01-08T21:50:39.545Z,3.03
2019-01-08T21:53:08.266Z,3.57
2019-01-08T21:55:36.950Z,3.40
2019-01-08T21:58:05.616Z,3.90
2019-01-08T22:00:34.097Z,4.47
2019-01-08T22:03:02.885Z,3.47
2019-01-08T22:05:31.702Z,2.87
2019-01-08T22:08:00.744Z,2.93
2019-01-08T22:10:29.488Z,3.53
2019-01-08T22:12:58.182Z,2.80
2019-01-08T22:15:26.899Z,2.50
2019-01-08T22:17:55.696Z,3.30
2019-01-08T22:20:24.376Z,2.80
2019-01-08T22:22:53.133Z,3.33
2019-01-08T22:25:21.574Z,3.20
2019-01-08T22:27:50.293Z,3.10
2019-01-08T22:30:18.688Z,3.00
2019-01-08T22:32:47.409Z,3.03
2019-01-08T22:35:16.099Z,3.33
2019-01-08T22:37:44.847Z,2.83
2019-01-08T22:40:13.659Z,3.30
2019-01-08T22:42:42.475Z,3.20
2019-01-08T22:45:11.241Z,3.73
2019-01-08T22:47:39.954Z,2.73
2019-01-08T22:50:09.219Z,6.93
2019-01-08T22:52:38.076Z,6.23
2019-01-08T22:55:06.663Z,7.77
2019-01-08T22:57:35.831Z,4.67
2019-01-08T23:00:09.186Z,5.10
2019-01-08T23:02:38.758Z,4.50
2019-01-08T23:05:10.928Z,4.80
2019-01-08T23:07:37.978Z,5.13
2019-01-08T23:10:07.196Z,7.37
2019-01-08T23:12:36.080Z,7.37
2019-01-08T23:15:13.211Z,4.33
2019-01-08T23:17:41.670Z,5.80
2019-01-08T23:20:10.475Z,6.67
2019-01-08T23:22:39.230Z,8.63
2019-01-08T23:25:08.073Z,3.43
2019-01-08T23:27:37.313Z,4.50
2019-01-08T23:30:08.138Z,4.10
2019-01-08T23:32:36.894Z,6.73
2019-01-08T23:35:06.863Z,4.90
2019-01-08T23:37:35.612Z,6.20
2019-01-08T23:40:05.304Z,9.30
2019-01-08T23:42:44.105Z,11.80
2019-01-08T23:45:13.044Z,6.90
2019-01-08T23:47:41.843Z,4.93
2019-01-08T23:50:11.171Z,6.47
2019-01-08T23:53:05.960Z,12.10
2019-01-08T23:55:37.282Z,9.57
2019-01-08T23:58:06.981Z,14.43
